sensor_id;sensor_type;location;lat;lon;timestamp;P1;durP1;ratioP1;P2;durP2;ratioP2
32096;SDS011;18610;49.916;8.284;2022-07-10T00:00:17;8.50;;;2.92;;
32096;SDS011;18610;49.916;8.284;2022-07-10T00:02:46;10.88;;;2.80;;
32096;SDS011;18610;49.916;8.284;2022-07-10T00:05:14;9.35;;;2.38;;
32096;SDS011;18610;49.916;8.284;2022-07-10T00:07:41;5.18;;;2.50;;
32096;SDS011;18610;49.916;8.284;2022-07-10T00:10:08;6.97;;;2.22;;
32096;SDS011;18610;49.916;8.284;2022-07-10T00:12:35;9.52;;;2.65;;
32096;SDS011;18610;49.916;8.284;2022-07-10T00:15:02;7.97;;;2.58;;
32096;SDS011;18610;49.916;8.284;2022-07-10T00:17:29;7.15;;;3.13;;
32096;SDS011;18610;49.916;8.284;2022-07-10T00:19:56;7.03;;;2.60;;
32096;SDS011;18610;49.916;8.284;2022-07-10T00:22:25;8.25;;;2.38;;
32096;SDS011;18610;49.916;8.284;2022-07-10T00:24:51;9.20;;;2.33;;
32096;SDS011;18610;49.916;8.284;2022-07-10T00:27:18;8.93;;;2.67;;
32096;SDS011;18610;49.916;8.284;2022-07-10T00:29:45;4.30;;;2.20;;
32096;SDS011;18610;49.916;8.284;2022-07-10T00:32:12;6.47;;;2.58;;
32096;SDS011;18610;49.916;8.284;2022-07-10T00:34:39;12.20;;;3.00;;
32096;SDS011;18610;49.916;8.284;2022-07-10T00:37:05;9.93;;;2.35;;
32096;SDS011;18610;49.916;8.284;2022-07-10T00:39:34;10.82;;;2.50;;
32096;SDS011;18610;49.916;8.284;2022-07-10T00:42:07;7.65;;;2.42;;
32096;SDS011;18610;49.916;8.284;2022-07-10T00:44:35;11.25;;;2.15;;
32096;SDS011;18610;49.916;8.284;2022-07-10T00:47:02;7.15;;;3.03;;
32096;SDS011;18610;49.916;8.284;2022-07-10T00:49:30;3.90;;;2.30;;
32096;SDS011;18610;49.916;8.284;2022-07-10T00:51:57;7.80;;;2.03;;
32096;SDS011;18610;49.916;8.284;2022-07-10T00:54:26;8.60;;;2.72;;
32096;SDS011;18610;49.916;8.284;2022-07-10T00:56:55;8.27;;;2.42;;
32096;SDS011;18610;49.916;8.284;2022-07-10T00:59:22;6.93;;;2.20;;
32096;SDS011;18610;49.916;8.284;2022-07-10T01:01:52;13.35;;;2.85;;
32096;SDS011;18610;49.916;8.284;2022-07-10T01:04:19;8.25;;;2.65;;
32096;SDS011;18610;49.916;8.284;2022-07-10T01:06:46;9.63;;;2.50;;
32096;SDS011;18610;49.916;8.284;2022-07-10T01:09:13;7.10;;;2.33;;
32096;SDS011;18610;49.916;8.284;2022-07-10T01:11:40;9.30;;;2.45;;
32096;SDS011;18610;49.916;8.284;2022-07-10T01:14:08;13.10;;;2.40;;
32096;SDS011;18610;49.916;8.284;2022-07-10T01:16:36;8.00;;;2.40;;
32096;SDS011;18610;49.916;8.284;2022-07-10T01:19:03;7.38;;;2.72;;
32096;SDS011;18610;49.916;8.284;2022-07-10T01:21:33;12.27;;;2.30;;
32096;SDS011;18610;49.916;8.284;2022-07-10T01:24:04;11.02;;;2.35;;
32096;SDS011;18610;49.916;8.284;2022-07-10T01:26:32;5.13;;;1.88;;
32096;SDS011;18610;49.916;8.284;2022-07-10T01:29:01;8.40;;;2.65;;
32096;SDS011;18610;49.916;8.284;2022-07-10T01:31:30;10.48;;;2.33;;
32096;SDS011;18610;49.916;8.284;2022-07-10T01:33:58;9.75;;;2.10;;
32096;SDS011;18610;49.916;8.284;2022-07-10T01:36:26;9.38;;;2.47;;
32096;SDS011;18610;49.916;8.284;2022-07-10T01:38:56;6.13;;;2.20;;
32096;SDS011;18610;49.916;8.284;2022-07-10T01:41:24;10.63;;;2.53;;
32096;SDS011;18610;49.916;8.284;2022-07-10T01:43:51;7.82;;;2.58;;
32096;SDS011;18610;49.916;8.284;2022-07-10T01:46:19;10.27;;;2.30;;
32096;SDS011;18610;49.916;8.284;2022-07-10T01:48:46;8.85;;;2.28;;
32096;SDS011;18610;49.916;8.284;2022-07-10T01:51:13;13.27;;;2.33;;
32096;SDS011;18610;49.916;8.284;2022-07-10T01:53:41;8.48;;;2.30;;
32096;SDS011;18610;49.916;8.284;2022-07-10T01:56:09;6.80;;;2.40;;
32096;SDS011;18610;49.916;8.284;2022-07-10T01:58:39;8.40;;;2.45;;
32096;SDS011;18610;49.916;8.284;2022-07-10T02:01:07;8.57;;;2.58;;
32096;SDS011;18610;49.916;8.284;2022-07-10T02:03:34;8.48;;;2.35;;
32096;SDS011;18610;49.916;8.284;2022-07-10T02:06:19;9.93;;;2.00;;
32096;SDS011;18610;49.916;8.284;2022-07-10T02:08:46;6.90;;;2.45;;
32096;SDS011;18610;49.916;8.284;2022-07-10T02:11:14;7.05;;;2.45;;
32096;SDS011;18610;49.916;8.284;2022-07-10T02:13:41;12.30;;;2.30;;
32096;SDS011;18610;49.916;8.284;2022-07-10T02:16:08;6.80;;;2.20;;
32096;SDS011;18610;49.916;8.284;2022-07-10T02:18:35;13.43;;;2.30;;
32096;SDS011;18610;49.916;8.284;2022-07-10T02:21:03;9.52;;;1.95;;
32096;SDS011;18610;49.916;8.284;2022-07-10T02:23:29;6.75;;;1.90;;
32096;SDS011;18610;49.916;8.284;2022-07-10T02:25:56;8.95;;;1.92;;
32096;SDS011;18610;49.916;8.284;2022-07-10T02:28:25;12.27;;;1.90;;
32096;SDS011;18610;49.916;8.284;2022-07-10T02:30:51;6.78;;;2.35;;
32096;SDS011;18610;49.916;8.284;2022-07-10T02:33:18;13.80;;;2.30;;
32096;SDS011;18610;49.916;8.284;2022-07-10T02:35:45;8.98;;;2.10;;
32096;SDS011;18610;49.916;8.284;2022-07-10T02:38:12;10.07;;;2.53;;
32096;SDS011;18610;49.916;8.284;2022-07-10T02:40:39;5.80;;;2.03;;
32096;SDS011;18610;49.916;8.284;2022-07-10T02:43:06;7.05;;;2.13;;
32096;SDS011;18610;49.916;8.284;2022-07-10T02:45:34;10.63;;;2.10;;
32096;SDS011;18610;49.916;8.284;2022-07-10T02:48:01;11.32;;;2.00;;
32096;SDS011;18610;49.916;8.284;2022-07-10T02:50:28;10.75;;;2.45;;
32096;SDS011;18610;49.916;8.284;2022-07-10T02:52:55;9.98;;;2.30;;
32096;SDS011;18610;49.916;8.284;2022-07-10T02:55:22;5.65;;;1.90;;
32096;SDS011;18610;49.916;8.284;2022-07-10T02:57:49;11.77;;;2.65;;
32096;SDS011;18610;49.916;8.284;2022-07-10T03:00:16;7.95;;;2.28;;
32096;SDS011;18610;49.916;8.284;2022-07-10T03:02:44;4.95;;;1.75;;
32096;SDS011;18610;49.916;8.284;2022-07-10T03:05:11;11.20;;;1.83;;
32096;SDS011;18610;49.916;8.284;2022-07-10T03:07:39;10.23;;;1.88;;
32096;SDS011;18610;49.916;8.284;2022-07-10T03:10:06;10.02;;;2.15;;
32096;SDS011;18610;49.916;8.284;2022-07-10T03:12:33;6.60;;;1.98;;
32096;SDS011;18610;49.916;8.284;2022-07-10T03:15:00;7.82;;;2.22;;
32096;SDS011;18610;49.916;8.284;2022-07-10T03:17:27;14.40;;;2.15;;
32096;SDS011;18610;49.916;8.284;2022-07-10T03:19:55;9.52;;;1.88;;
32096;SDS011;18610;49.916;8.284;2022-07-10T03:22:22;6.47;;;1.92;;
32096;SDS011;18610;49.916;8.284;2022-07-10T03:24:49;10.85;;;1.90;;
32096;SDS011;18610;49.916;8.284;2022-07-10T03:27:16;7.25;;;2.90;;
32096;SDS011;18610;49.916;8.284;2022-07-10T03:29:43;5.65;;;2.10;;
32096;SDS011;18610;49.916;8.284;2022-07-10T03:32:11;15.00;;;2.50;;
32096;SDS011;18610;49.916;8.284;2022-07-10T03:34:38;10.20;;;2.25;;
32096;SDS011;18610;49.916;8.284;2022-07-10T03:37:06;6.07;;;2.00;;
32096;SDS011;18610;49.916;8.284;2022-07-10T03:39:33;10.68;;;2.47;;
32096;SDS011;18610;49.916;8.284;2022-07-10T03:42:00;6.85;;;2.25;;
32096;SDS011;18610;49.916;8.284;2022-07-10T03:44:27;8.00;;;2.33;;
32096;SDS011;18610;49.916;8.284;2022-07-10T03:46:54;12.60;;;2.75;;
32096;SDS011;18610;49.916;8.284;2022-07-10T03:49:20;16.25;;;2.60;;
32096;SDS011;18610;49.916;8.284;2022-07-10T03:51:47;9.00;;;2.05;;
32096;SDS011;18610;49.916;8.284;2022-07-10T03:54:16;12.38;;;2.22;;
32096;SDS011;18610;49.916;8.284;2022-07-10T03:56:43;4.70;;;1.70;;
32096;SDS011;18610;49.916;8.284;2022-07-10T03:59:27;11.85;;;2.03;;
32096;SDS011;18610;49.916;8.284;2022-07-10T04:01:54;5.38;;;2.58;;
32096;SDS011;18610;49.916;8.284;2022-07-10T04:04:21;4.57;;;1.75;;
32096;SDS011;18610;49.916;8.284;2022-07-10T04:06:48;10.70;;;1.98;;
32096;SDS011;18610;49.916;8.284;2022-07-10T04:09:16;11.30;;;2.17;;
32096;SDS011;18610;49.916;8.284;2022-07-10T04:11:43;4.65;;;1.83;;
32096;SDS011;18610;49.916;8.284;2022-07-10T04:14:10;4.07;;;1.50;;
32096;SDS011;18610;49.916;8.284;2022-07-10T04:16:37;8.75;;;2.13;;
32096;SDS011;18610;49.916;8.284;2022-07-10T04:19:04;8.68;;;1.90;;
32096;SDS011;18610;49.916;8.284;2022-07-10T04:21:30;7.28;;;1.92;;
32096;SDS011;18610;49.916;8.284;2022-07-10T04:23:57;6.93;;;1.92;;
32096;SDS011;18610;49.916;8.284;2022-07-10T04:26:26;6.78;;;2.15;;
32096;SDS011;18610;49.916;8.284;2022-07-10T04:28:52;10.82;;;2.17;;
32096;SDS011;18610;49.916;8.284;2022-07-10T04:31:19;6.57;;;2.20;;
32096;SDS011;18610;49.916;8.284;2022-07-10T04:33:46;6.65;;;1.60;;
32096;SDS011;18610;49.916;8.284;2022-07-10T04:36:13;13.05;;;2.80;;
32096;SDS011;18610;49.916;8.284;2022-07-10T04:38:41;8.30;;;1.90;;
32096;SDS011;18610;49.916;8.284;2022-07-10T04:41:08;8.10;;;2.90;;
32096;SDS011;18610;49.916;8.284;2022-07-10T04:43:36;13.88;;;2.50;;
32096;SDS011;18610;49.916;8.284;2022-07-10T04:46:03;7.85;;;2.00;;
32096;SDS011;18610;49.916;8.284;2022-07-10T04:48:31;7.32;;;1.85;;
32096;SDS011;18610;49.916;8.284;2022-07-10T04:50:58;13.45;;;1.75;;
32096;SDS011;18610;49.916;8.284;2022-07-10T04:53:25;11.25;;;2.28;;
32096;SDS011;18610;49.916;8.284;2022-07-10T04:55:52;8.98;;;2.05;;
32096;SDS011;18610;49.916;8.284;2022-07-10T04:58:19;8.73;;;1.77;;
32096;SDS011;18610;49.916;8.284;2022-07-10T05:00:47;5.72;;;1.67;;
32096;SDS011;18610;49.916;8.284;2022-07-10T05:03:13;7.90;;;1.83;;
32096;SDS011;18610;49.916;8.284;2022-07-10T05:05:40;5.97;;;1.50;;
32096;SDS011;18610;49.916;8.284;2022-07-10T05:08:07;8.18;;;2.22;;
32096;SDS011;18610;49.916;8.284;2022-07-10T05:10:34;14.80;;;1.63;;
32096;SDS011;18610;49.916;8.284;2022-07-10T05:13:01;8.45;;;1.92;;
32096;SDS011;18610;49.916;8.284;2022-07-10T05:15:27;7.25;;;1.85;;
32096;SDS011;18610;49.916;8.284;2022-07-10T05:17:56;8.00;;;1.67;;
32096;SDS011;18610;49.916;8.284;2022-07-10T05:20:23;5.63;;;1.40;;
32096;SDS011;18610;49.916;8.284;2022-07-10T05:22:50;8.57;;;1.90;;
32096;SDS011;18610;49.916;8.284;2022-07-10T05:25:17;8.65;;;2.00;;
32096;SDS011;18610;49.916;8.284;2022-07-10T05:27:43;7.80;;;1.63;;
32096;SDS011;18610;49.916;8.284;2022-07-10T05:30:10;8.27;;;1.83;;
32096;SDS011;18610;49.916;8.284;2022-07-10T05:32:41;12.73;;;1.73;;
32096;SDS011;18610;49.916;8.284;2022-07-10T05:35:10;4.63;;;1.60;;
32096;SDS011;18610;49.916;8.284;2022-07-10T05:37:37;8.57;;;1.50;;
32096;SDS011;18610;49.916;8.284;2022-07-10T05:40:05;12.80;;;2.08;;
32096;SDS011;18610;49.916;8.284;2022-07-10T05:42:33;7.32;;;1.75;;
32096;SDS011;18610;49.916;8.284;2022-07-10T05:45:00;11.68;;;2.30;;
32096;SDS011;18610;49.916;8.284;2022-07-10T05:47:27;5.10;;;1.90;;
32096;SDS011;18610;49.916;8.284;2022-07-10T05:49:54;12.20;;;1.95;;
32096;SDS011;18610;49.916;8.284;2022-07-10T05:52:22;8.88;;;1.60;;
32096;SDS011;18610;49.916;8.284;2022-07-10T05:54:49;3.88;;;1.50;;
32096;SDS011;18610;49.916;8.284;2022-07-10T05:57:16;5.97;;;1.40;;
32096;SDS011;18610;49.916;8.284;2022-07-10T05:59:43;8.32;;;1.40;;
32096;SDS011;18610;49.916;8.284;2022-07-10T06:02:10;5.63;;;1.35;;
32096;SDS011;18610;49.916;8.284;2022-07-10T06:04:37;5.20;;;1.40;;
32096;SDS011;18610;49.916;8.284;2022-07-10T06:07:04;6.38;;;1.15;;
32096;SDS011;18610;49.916;8.284;2022-07-10T06:09:32;5.85;;;1.30;;
32096;SDS011;18610;49.916;8.284;2022-07-10T06:11:59;4.18;;;1.27;;
32096;SDS011;18610;49.916;8.284;2022-07-10T06:14:25;4.65;;;1.33;;
32096;SDS011;18610;49.916;8.284;2022-07-10T06:16:52;4.38;;;1.40;;
32096;SDS011;18610;49.916;8.284;2022-07-10T06:19:19;11.07;;;1.63;;
32096;SDS011;18610;49.916;8.284;2022-07-10T06:21:46;6.13;;;1.25;;
32096;SDS011;18610;49.916;8.284;2022-07-10T06:24:13;8.88;;;1.65;;
32096;SDS011;18610;49.916;8.284;2022-07-10T06:26:41;4.75;;;1.35;;
32096;SDS011;18610;49.916;8.284;2022-07-10T06:29:08;6.07;;;1.40;;
32096;SDS011;18610;49.916;8.284;2022-07-10T06:31:35;9.02;;;1.23;;
32096;SDS011;18610;49.916;8.284;2022-07-10T06:34:02;5.07;;;1.13;;
32096;SDS011;18610;49.916;8.284;2022-07-10T06:36:29;11.80;;;2.05;;
32096;SDS011;18610;49.916;8.284;2022-07-10T06:38:56;9.38;;;1.55;;
32096;SDS011;18610;49.916;8.284;2022-07-10T06:41:22;7.53;;;1.35;;
32096;SDS011;18610;49.916;8.284;2022-07-10T06:43:51;6.53;;;1.17;;
32096;SDS011;18610;49.916;8.284;2022-07-10T06:46:17;6.60;;;1.35;;
32096;SDS011;18610;49.916;8.284;2022-07-10T06:48:44;4.65;;;1.08;;
32096;SDS011;18610;49.916;8.284;2022-07-10T06:51:10;5.00;;;1.05;;
32096;SDS011;18610;49.916;8.284;2022-07-10T06:53:37;4.43;;;1.00;;
32096;SDS011;18610;49.916;8.284;2022-07-10T06:56:04;5.05;;;1.48;;
32096;SDS011;18610;49.916;8.284;2022-07-10T06:58:31;4.25;;;1.10;;
32096;SDS011;18610;49.916;8.284;2022-07-10T07:01:00;6.18;;;1.20;;
32096;SDS011;18610;49.916;8.284;2022-07-10T07:03:26;11.02;;;1.85;;
32096;SDS011;18610;49.916;8.284;2022-07-10T07:05:53;5.03;;;1.00;;
32096;SDS011;18610;49.916;8.284;2022-07-10T07:08:21;7.32;;;1.30;;
32096;SDS011;18610;49.916;8.284;2022-07-10T07:10:47;3.65;;;1.10;;
32096;SDS011;18610;49.916;8.284;2022-07-10T07:13:14;6.35;;;1.15;;
32096;SDS011;18610;49.916;8.284;2022-07-10T07:15:41;3.55;;;1.00;;
32096;SDS011;18610;49.916;8.284;2022-07-10T07:18:16;4.10;;;1.17;;
32096;SDS011;18610;49.916;8.284;2022-07-10T07:20:43;9.48;;;1.27;;
32096;SDS011;18610;49.916;8.284;2022-07-10T07:23:27;5.70;;;1.55;;
32096;SDS011;18610;49.916;8.284;2022-07-10T07:25:54;5.03;;;1.20;;
32096;SDS011;18610;49.916;8.284;2022-07-10T07:28:21;4.57;;;1.20;;
32096;SDS011;18610;49.916;8.284;2022-07-10T07:30:48;6.07;;;1.15;;
32096;SDS011;18610;49.916;8.284;2022-07-10T07:33:17;8.55;;;1.38;;
32096;SDS011;18610;49.916;8.284;2022-07-10T07:35:43;3.90;;;1.02;;
32096;SDS011;18610;49.916;8.284;2022-07-10T07:38:10;6.30;;;1.00;;
32096;SDS011;18610;49.916;8.284;2022-07-10T07:40:37;4.07;;;1.10;;
32096;SDS011;18610;49.916;8.284;2022-07-10T07:43:04;5.25;;;1.10;;
32096;SDS011;18610;49.916;8.284;2022-07-10T07:45:31;4.25;;;0.90;;
32096;SDS011;18610;49.916;8.284;2022-07-10T07:47:58;3.78;;;1.15;;
32096;SDS011;18610;49.916;8.284;2022-07-10T07:50:28;6.90;;;2.10;;
32096;SDS011;18610;49.916;8.284;2022-07-10T07:52:57;3.85;;;0.90;;
32096;SDS011;18610;49.916;8.284;2022-07-10T07:55:24;4.30;;;1.02;;
32096;SDS011;18610;49.916;8.284;2022-07-10T07:57:51;5.05;;;1.08;;
32096;SDS011;18610;49.916;8.284;2022-07-10T08:00:19;2.45;;;0.93;;
32096;SDS011;18610;49.916;8.284;2022-07-10T08:02:47;5.50;;;1.27;;
32096;SDS011;18610;49.916;8.284;2022-07-10T08:05:15;6.63;;;1.10;;
32096;SDS011;18610;49.916;8.284;2022-07-10T08:07:45;4.30;;;1.10;;
32096;SDS011;18610;49.916;8.284;2022-07-10T08:10:14;3.83;;;0.77;;
32096;SDS011;18610;49.916;8.284;2022-07-10T08:12:42;2.88;;;1.15;;
32096;SDS011;18610;49.916;8.284;2022-07-10T08:15:12;3.08;;;1.10;;
32096;SDS011;18610;49.916;8.284;2022-07-10T08:17:40;5.63;;;1.10;;
32096;SDS011;18610;49.916;8.284;2022-07-10T08:20:08;4.88;;;1.10;;
32096;SDS011;18610;49.916;8.284;2022-07-10T08:22:38;6.72;;;1.35;;
32096;SDS011;18610;49.916;8.284;2022-07-10T08:25:07;3.35;;;0.93;;
32096;SDS011;18610;49.916;8.284;2022-07-10T08:27:34;4.45;;;1.00;;
32096;SDS011;18610;49.916;8.284;2022-07-10T08:30:01;13.00;;;1.35;;
32096;SDS011;18610;49.916;8.284;2022-07-10T08:32:28;4.22;;;1.17;;
32096;SDS011;18610;49.916;8.284;2022-07-10T08:34:55;6.05;;;0.98;;
32096;SDS011;18610;49.916;8.284;2022-07-10T08:37:21;10.95;;;1.33;;
32096;SDS011;18610;49.916;8.284;2022-07-10T08:39:48;5.13;;;1.10;;
32096;SDS011;18610;49.916;8.284;2022-07-10T08:42:17;10.63;;;1.35;;
32096;SDS011;18610;49.916;8.284;2022-07-10T08:44:45;3.08;;;1.00;;
32096;SDS011;18610;49.916;8.284;2022-07-10T08:47:11;3.25;;;1.20;;
32096;SDS011;18610;49.916;8.284;2022-07-10T08:49:44;3.70;;;0.82;;
32096;SDS011;18610;49.916;8.284;2022-07-10T08:52:13;3.45;;;1.38;;
32096;SDS011;18610;49.916;8.284;2022-07-10T08:54:49;10.10;;;2.33;;
32096;SDS011;18610;49.916;8.284;2022-07-10T08:57:18;2.95;;;0.73;;
32096;SDS011;18610;49.916;8.284;2022-07-10T08:59:45;4.25;;;1.40;;
32096;SDS011;18610;49.916;8.284;2022-07-10T09:02:12;5.65;;;1.15;;
32096;SDS011;18610;49.916;8.284;2022-07-10T09:04:39;4.50;;;1.27;;
32096;SDS011;18610;49.916;8.284;2022-07-10T09:07:06;9.57;;;1.48;;
32096;SDS011;18610;49.916;8.284;2022-07-10T09:09:35;4.50;;;1.13;;
32096;SDS011;18610;49.916;8.284;2022-07-10T09:12:20;3.42;;;0.95;;
32096;SDS011;18610;49.916;8.284;2022-07-10T09:14:47;6.00;;;1.10;;
32096;SDS011;18610;49.916;8.284;2022-07-10T09:17:14;3.60;;;1.15;;
32096;SDS011;18610;49.916;8.284;2022-07-10T09:19:40;10.82;;;1.30;;
32096;SDS011;18610;49.916;8.284;2022-07-10T09:22:08;7.32;;;1.38;;
32096;SDS011;18610;49.916;8.284;2022-07-10T09:24:37;3.60;;;0.95;;
32096;SDS011;18610;49.916;8.284;2022-07-10T09:27:05;7.50;;;1.08;;
32096;SDS011;18610;49.916;8.284;2022-07-10T09:29:44;4.32;;;1.38;;
32096;SDS011;18610;49.916;8.284;2022-07-10T09:32:12;7.47;;;1.35;;
32096;SDS011;18610;49.916;8.284;2022-07-10T09:34:41;6.68;;;1.52;;
32096;SDS011;18610;49.916;8.284;2022-07-10T09:37:19;6.85;;;2.03;;
32096;SDS011;18610;49.916;8.284;2022-07-10T09:39:53;4.90;;;1.25;;
32096;SDS011;18610;49.916;8.284;2022-07-10T09:42:29;6.03;;;1.30;;
32096;SDS011;18610;49.916;8.284;2022-07-10T09:45:15;3.70;;;0.98;;
32096;SDS011;18610;49.916;8.284;2022-07-10T09:47:44;5.60;;;1.35;;
32096;SDS011;18610;49.916;8.284;2022-07-10T09:50:19;5.72;;;1.67;;
32096;SDS011;18610;49.916;8.284;2022-07-10T09:52:48;4.68;;;0.93;;
32096;SDS011;18610;49.916;8.284;2022-07-10T09:55:17;4.70;;;1.33;;
32096;SDS011;18610;49.916;8.284;2022-07-10T09:57:45;8.95;;;1.30;;
32096;SDS011;18610;49.916;8.284;2022-07-10T10:00:21;3.30;;;1.10;;
32096;SDS011;18610;49.916;8.284;2022-07-10T10:02:51;7.47;;;1.40;;
32096;SDS011;18610;49.916;8.284;2022-07-10T10:05:21;4.93;;;1.15;;
32096;SDS011;18610;49.916;8.284;2022-07-10T10:10:20;7.13;;;1.40;;
32096;SDS011;18610;49.916;8.284;2022-07-10T10:12:48;8.57;;;1.85;;
32096;SDS011;18610;49.916;8.284;2022-07-10T10:15:22;3.78;;;1.05;;
32096;SDS011;18610;49.916;8.284;2022-07-10T10:17:50;4.53;;;1.00;;
32096;SDS011;18610;49.916;8.284;2022-07-10T10:20:18;5.20;;;1.48;;
32096;SDS011;18610;49.916;8.284;2022-07-10T10:23:08;5.18;;;1.55;;
32096;SDS011;18610;49.916;8.284;2022-07-10T10:25:36;7.45;;;1.40;;
32096;SDS011;18610;49.916;8.284;2022-07-10T10:28:05;7.28;;;1.70;;
32096;SDS011;18610;49.916;8.284;2022-07-10T10:30:36;8.55;;;1.40;;
32096;SDS011;18610;49.916;8.284;2022-07-10T10:33:18;8.02;;;1.90;;
32096;SDS011;18610;49.916;8.284;2022-07-10T10:36:13;7.60;;;1.63;;
32096;SDS011;18610;49.916;8.284;2022-07-10T10:38:59;6.13;;;1.67;;
32096;SDS011;18610;49.916;8.284;2022-07-10T10:41:27;7.55;;;1.17;;
32096;SDS011;18610;49.916;8.284;2022-07-10T10:47:02;7.43;;;1.20;;
32096;SDS011;18610;49.916;8.284;2022-07-10T10:52:19;9.88;;;1.60;;
32096;SDS011;18610;49.916;8.284;2022-07-10T10:54:59;8.70;;;1.15;;
32096;SDS011;18610;49.916;8.284;2022-07-10T10:57:37;7.95;;;1.40;;
32096;SDS011;18610;49.916;8.284;2022-07-10T11:03:13;6.30;;;1.17;;
32096;SDS011;18610;49.916;8.284;2022-07-10T11:05:48;4.57;;;1.48;;
32096;SDS011;18610;49.916;8.284;2022-07-10T11:08:35;8.90;;;1.20;;
32096;SDS011;18610;49.916;8.284;2022-07-10T11:14:08;3.47;;;1.13;;
32096;SDS011;18610;49.916;8.284;2022-07-10T11:16:37;5.85;;;1.27;;
32096;SDS011;18610;49.916;8.284;2022-07-10T11:19:14;7.60;;;1.77;;
32096;SDS011;18610;49.916;8.284;2022-07-10T11:21:47;7.20;;;1.15;;
32096;SDS011;18610;49.916;8.284;2022-07-10T11:24:20;3.45;;;1.08;;
32096;SDS011;18610;49.916;8.284;2022-07-10T11:27:15;9.50;;;1.52;;
32096;SDS011;18610;49.916;8.284;2022-07-10T11:29:56;5.82;;;1.45;;
32096;SDS011;18610;49.916;8.284;2022-07-10T11:32:23;5.63;;;1.15;;
32096;SDS011;18610;49.916;8.284;2022-07-10T11:34:52;3.72;;;1.25;;
32096;SDS011;18610;49.916;8.284;2022-07-10T11:37:19;6.47;;;1.27;;
32096;SDS011;18610;49.916;8.284;2022-07-10T11:39:45;7.10;;;1.40;;
32096;SDS011;18610;49.916;8.284;2022-07-10T11:42:12;7.97;;;1.60;;
32096;SDS011;18610;49.916;8.284;2022-07-10T11:44:39;6.90;;;1.45;;
32096;SDS011;18610;49.916;8.284;2022-07-10T11:47:06;4.00;;;1.30;;
32096;SDS011;18610;49.916;8.284;2022-07-10T11:49:33;3.17;;;1.20;;
32096;SDS011;18610;49.916;8.284;2022-07-10T11:52:02;4.57;;;1.30;;
32096;SDS011;18610;49.916;8.284;2022-07-10T11:54:30;6.82;;;1.20;;
32096;SDS011;18610;49.916;8.284;2022-07-10T11:57:04;4.15;;;1.27;;
32096;SDS011;18610;49.916;8.284;2022-07-10T11:59:33;5.60;;;1.17;;
32096;SDS011;18610;49.916;8.284;2022-07-10T12:02:00;7.10;;;1.35;;
32096;SDS011;18610;49.916;8.284;2022-07-10T12:04:28;10.93;;;1.55;;
32096;SDS011;18610;49.916;8.284;2022-07-10T12:06:57;6.47;;;1.30;;
32096;SDS011;18610;49.916;8.284;2022-07-10T12:09:25;6.40;;;1.13;;
32096;SDS011;18610;49.916;8.284;2022-07-10T12:11:59;4.93;;;1.45;;
32096;SDS011;18610;49.916;8.284;2022-07-10T12:14:26;4.85;;;1.55;;
32096;SDS011;18610;49.916;8.284;2022-07-10T12:16:54;5.63;;;1.25;;
32096;SDS011;18610;49.916;8.284;2022-07-10T12:19:22;4.05;;;1.23;;
32096;SDS011;18610;49.916;8.284;2022-07-10T12:21:52;7.45;;;1.05;;
32096;SDS011;18610;49.916;8.284;2022-07-10T12:24:20;2.53;;;1.17;;
32096;SDS011;18610;49.916;8.284;2022-07-10T12:26:50;5.95;;;1.20;;
32096;SDS011;18610;49.916;8.284;2022-07-10T12:29:21;6.38;;;1.58;;
32096;SDS011;18610;49.916;8.284;2022-07-10T12:31:50;5.05;;;1.17;;
32096;SDS011;18610;49.916;8.284;2022-07-10T12:34:18;4.05;;;0.90;;
32096;SDS011;18610;49.916;8.284;2022-07-10T12:36:45;4.20;;;1.42;;
32096;SDS011;18610;49.916;8.284;2022-07-10T12:39:13;4.22;;;1.35;;
32096;SDS011;18610;49.916;8.284;2022-07-10T12:41:59;4.35;;;0.80;;
32096;SDS011;18610;49.916;8.284;2022-07-10T12:44:35;4.03;;;0.93;;
32096;SDS011;18610;49.916;8.284;2022-07-10T12:47:03;8.15;;;1.10;;
32096;SDS011;18610;49.916;8.284;2022-07-10T12:49:53;7.53;;;1.48;;
32096;SDS011;18610;49.916;8.284;2022-07-10T12:52:21;3.10;;;1.10;;
32096;SDS011;18610;49.916;8.284;2022-07-10T12:54:48;2.80;;;0.77;;
32096;SDS011;18610;49.916;8.284;2022-07-10T12:57:32;3.63;;;0.90;;
32096;SDS011;18610;49.916;8.284;2022-07-10T13:00:02;4.80;;;0.90;;
32096;SDS011;18610;49.916;8.284;2022-07-10T13:02:31;2.72;;;1.00;;
32096;SDS011;18610;49.916;8.284;2022-07-10T13:04:58;4.75;;;1.40;;
32096;SDS011;18610;49.916;8.284;2022-07-10T13:07:28;2.20;;;0.80;;
32096;SDS011;18610;49.916;8.284;2022-07-10T13:09:58;2.35;;;0.73;;
32096;SDS011;18610;49.916;8.284;2022-07-10T13:12:25;3.45;;;0.90;;
32096;SDS011;18610;49.916;8.284;2022-07-10T13:14:53;2.80;;;1.30;;
32096;SDS011;18610;49.916;8.284;2022-07-10T13:17:20;4.65;;;1.50;;
32096;SDS011;18610;49.916;8.284;2022-07-10T13:19:48;7.53;;;2.90;;
32096;SDS011;18610;49.916;8.284;2022-07-10T13:22:15;4.82;;;2.10;;
32096;SDS011;18610;49.916;8.284;2022-07-10T13:24:42;3.70;;;1.58;;
32096;SDS011;18610;49.916;8.284;2022-07-10T13:27:09;1.98;;;1.20;;
32096;SDS011;18610;49.916;8.284;2022-07-10T13:29:36;3.72;;;0.70;;
32096;SDS011;18610;49.916;8.284;2022-07-10T13:32:05;1.95;;;0.73;;
32096;SDS011;18610;49.916;8.284;2022-07-10T13:34:32;1.58;;;0.68;;
32096;SDS011;18610;49.916;8.284;2022-07-10T13:36:59;2.05;;;0.70;;
32096;SDS011;18610;49.916;8.284;2022-07-10T13:39:27;0.85;;;0.38;;
32096;SDS011;18610;49.916;8.284;2022-07-10T13:41:53;2.15;;;0.70;;
32096;SDS011;18610;49.916;8.284;2022-07-10T13:44:20;1.95;;;0.68;;
32096;SDS011;18610;49.916;8.284;2022-07-10T13:46:47;2.17;;;0.85;;
32096;SDS011;18610;49.916;8.284;2022-07-10T13:49:15;2.67;;;0.90;;
32096;SDS011;18610;49.916;8.284;2022-07-10T13:51:42;4.85;;;1.80;;
32096;SDS011;18610;49.916;8.284;2022-07-10T13:54:09;2.92;;;0.90;;
32096;SDS011;18610;49.916;8.284;2022-07-10T13:56:36;4.43;;;0.90;;
32096;SDS011;18610;49.916;8.284;2022-07-10T13:59:03;4.93;;;1.02;;
32096;SDS011;18610;49.916;8.284;2022-07-10T14:01:30;1.85;;;0.75;;
32096;SDS011;18610;49.916;8.284;2022-07-10T14:03:56;4.45;;;0.80;;
32096;SDS011;18610;49.916;8.284;2022-07-10T14:06:24;3.35;;;1.23;;
32096;SDS011;18610;49.916;8.284;2022-07-10T14:08:51;5.15;;;1.20;;
32096;SDS011;18610;49.916;8.284;2022-07-10T14:11:18;3.58;;;0.80;;
32096;SDS011;18610;49.916;8.284;2022-07-10T14:13:45;4.43;;;0.88;;
32096;SDS011;18610;49.916;8.284;2022-07-10T14:16:12;3.00;;;0.77;;
32096;SDS011;18610;49.916;8.284;2022-07-10T14:18:39;5.85;;;0.70;;
32096;SDS011;18610;49.916;8.284;2022-07-10T14:21:07;2.90;;;1.15;;
32096;SDS011;18610;49.916;8.284;2022-07-10T14:23:36;2.80;;;0.90;;
32096;SDS011;18610;49.916;8.284;2022-07-10T14:28:33;1.27;;;0.80;;
32096;SDS011;18610;49.916;8.284;2022-07-10T14:31:00;1.70;;;0.60;;
32096;SDS011;18610;49.916;8.284;2022-07-10T14:33:28;4.07;;;0.77;;
32096;SDS011;18610;49.916;8.284;2022-07-10T14:35:56;2.08;;;0.60;;
32096;SDS011;18610;49.916;8.284;2022-07-10T14:38:23;10.68;;;1.95;;
32096;SDS011;18610;49.916;8.284;2022-07-10T14:40:51;2.35;;;0.90;;
32096;SDS011;18610;49.916;8.284;2022-07-10T14:43:18;1.75;;;0.60;;
32096;SDS011;18610;49.916;8.284;2022-07-10T14:45:45;3.38;;;0.95;;
32096;SDS011;18610;49.916;8.284;2022-07-10T14:48:12;2.28;;;0.60;;
32096;SDS011;18610;49.916;8.284;2022-07-10T14:50:40;6.55;;;0.82;;
32096;SDS011;18610;49.916;8.284;2022-07-10T14:53:07;2.97;;;0.63;;
32096;SDS011;18610;49.916;8.284;2022-07-10T14:55:36;4.10;;;0.70;;
32096;SDS011;18610;49.916;8.284;2022-07-10T14:58:04;2.17;;;0.57;;
32096;SDS011;18610;49.916;8.284;2022-07-10T15:00:31;2.17;;;0.50;;
32096;SDS011;18610;49.916;8.284;2022-07-10T15:02:58;1.75;;;0.88;;
32096;SDS011;18610;49.916;8.284;2022-07-10T15:05:25;1.63;;;0.60;;
32096;SDS011;18610;49.916;8.284;2022-07-10T15:07:53;1.73;;;0.65;;
32096;SDS011;18610;49.916;8.284;2022-07-10T15:10:19;2.75;;;0.70;;